BKPR/PRN METAR and TAF weather

Enter ICAO airport designator
Station Type Date Time Source
BKPR METAR 2021/04/17 02:30 UTC NOAA

BKPR 170230Z 06006KT 9999 -RA SCT025 BKN040 02/M01 Q1017 NOSIG


Station Type Date Time Source
BKPR Decoded METAR 2021/04/17 02:30 UTC NOAA

Station name not available
Apr 16, 2021 - 10:30 PM EDT / 2021.04.17 0230 UTC
Wind: from the ENE (060 degrees) at 7 MPH (6 KT):0
Visibility: greater than 7 mile(s):0
Sky conditions: mostly cloudy
Weather: light rain
Temperature: 35 F (2 C)
Windchill: 28 F (-2 C):1
Dew Point: 30 F (-1 C)
Relative Humidity: 80%
Pressure (altimeter): 30.03 in. Hg (1017 hPa)
ob: BKPR 170230Z 06006KT 9999 -RA SCT025 BKN040 02/M01 Q1017 NOSIG
cycle: 2

Station Type Date Time Source
BKPR TAF 2021/04/16 18:30 UTC NOAA

TAF BKPR 161730Z 1618/1718 02008KT 9999 SCT040 BKN050
TEMPO 1702/1718 3000 -RA BR

Example: see airport list